createdAt,value
2019-01-16T00:00:40.507Z,99.90
2019-01-16T00:03:21.398Z,99.90
2019-01-16T00:06:06.927Z,99.90
2019-01-16T00:09:05.754Z,99.90
2019-01-16T00:12:01.755Z,99.90
2019-01-16T00:14:47.618Z,99.90
2019-01-16T00:17:38.022Z,99.90
2019-01-16T00:20:29.153Z,99.90
2019-01-16T00:23:28.342Z,99.90
2019-01-16T00:26:15.654Z,99.90
2019-01-16T00:29:15.067Z,99.90
2019-01-16T00:32:02.350Z,99.90
2019-01-16T00:34:47.503Z,99.90
2019-01-16T00:37:29.382Z,99.90
2019-01-16T00:40:31.379Z,99.90
2019-01-16T00:43:24.839Z,99.90
2019-01-16T00:46:06.159Z,99.90
2019-01-16T00:49:04.945Z,99.90
2019-01-16T00:52:06.731Z,99.90
2019-01-16T00:54:59.945Z,99.90
2019-01-16T00:57:45.323Z,99.90
2019-01-16T01:00:24.155Z,99.90
2019-01-16T01:03:13.954Z,99.90
2019-01-16T01:06:00.610Z,99.90
2019-01-16T01:08:41.506Z,99.90
2019-01-16T01:11:31.335Z,99.90
2019-01-16T01:14:21.059Z,99.90
2019-01-16T01:17:08.430Z,99.90
2019-01-16T01:19:54.110Z,99.90
2019-01-16T01:22:56.114Z,99.90
2019-01-16T01:25:38.848Z,99.90
2019-01-16T01:28:14.739Z,99.90
2019-01-16T01:31:06.760Z,99.90
2019-01-16T01:34:11.919Z,99.90
2019-01-16T01:37:01.870Z,99.90
2019-01-16T01:39:48.830Z,99.90
2019-01-16T01:42:41.576Z,99.90
2019-01-16T01:45:34.402Z,99.90
2019-01-16T01:48:09.861Z,99.90
2019-01-16T01:51:02.519Z,99.90
2019-01-16T01:53:49.782Z,99.90
2019-01-16T01:56:48.799Z,99.90
2019-01-16T01:59:27.221Z,99.90
2019-01-16T02:02:10.711Z,99.90
2019-01-16T02:04:52.538Z,99.90
2019-01-16T02:07:43.023Z,99.90
2019-01-16T02:10:30.071Z,99.90
2019-01-16T02:13:26.135Z,99.90
2019-01-16T02:16:11.390Z,99.90
2019-01-16T02:18:57.170Z,99.90
2019-01-16T02:21:42.690Z,99.90
2019-01-16T02:24:28.206Z,99.70
2019-01-16T02:27:17.966Z,99.70
2019-01-16T02:30:02.497Z,99.50
2019-01-16T02:32:52.719Z,99.80
2019-01-16T02:35:45.468Z,99.60
2019-01-16T02:38:38.430Z,99.10
2019-01-16T02:41:22.026Z,99.90
2019-01-16T02:44:04.042Z,99.40
2019-01-16T02:46:51.934Z,99.50
2019-01-16T02:49:37.647Z,99.60
2019-01-16T02:52:27.688Z,99.10
2019-01-16T02:55:32.766Z,99.30
2019-01-16T02:58:22.702Z,99.10
2019-01-16T03:01:08.158Z,98.70
2019-01-16T03:03:53.827Z,98.30
2019-01-16T03:06:49.778Z,98.50
2019-01-16T03:09:39.076Z,98.50
2019-01-16T03:12:27.699Z,97.90
2019-01-16T03:15:14.927Z,98.00
2019-01-16T03:18:00.162Z,98.50
2019-01-16T03:20:47.115Z,97.90
2019-01-16T03:23:32.828Z,98.10
2019-01-16T03:26:32.174Z,98.00
2019-01-16T03:29:25.130Z,98.10
2019-01-16T03:32:06.908Z,97.80
2019-01-16T03:34:56.610Z,98.10
2019-01-16T03:37:55.586Z,98.40
2019-01-16T03:40:41.306Z,97.90
2019-01-16T03:43:32.098Z,97.60
2019-01-16T03:46:13.369Z,97.90
2019-01-16T03:49:12.946Z,98.00
2019-01-16T03:51:58.891Z,98.40
2019-01-16T03:54:57.914Z,98.20
2019-01-16T03:57:35.078Z,98.00
2019-01-16T04:00:21.400Z,97.70
2019-01-16T04:03:13.780Z,97.40
2019-01-16T04:05:51.079Z,98.00
2019-01-16T04:08:38.535Z,97.40
2019-01-16T04:11:44.247Z,97.50
2019-01-16T04:14:40.150Z,97.90
2019-01-16T04:17:27.179Z,97.40
2019-01-16T04:20:12.394Z,97.90
2019-01-16T04:22:52.222Z,98.00
2019-01-16T04:25:57.355Z,97.60
2019-01-16T04:28:38.226Z,97.50
2019-01-16T04:31:31.287Z,97.20
2019-01-16T04:34:21.643Z,97.60
2019-01-16T04:37:18.095Z,96.90
2019-01-16T04:40:20.252Z,97.40
2019-01-16T04:43:19.776Z,96.70
2019-01-16T04:46:15.945Z,96.60
2019-01-16T04:48:56.110Z,96.60
2019-01-16T04:51:43.171Z,96.40
2019-01-16T04:54:28.855Z,96.80
2019-01-16T04:57:21.635Z,96.10
2019-01-16T05:00:08.671Z,96.70
2019-01-16T05:03:01.877Z,97.10
2019-01-16T05:05:55.015Z,96.70
2019-01-16T05:08:36.039Z,96.80
2019-01-16T05:11:34.991Z,97.20
2019-01-16T05:14:31.154Z,97.30
2019-01-16T05:17:19.611Z,97.20
2019-01-16T05:20:05.148Z,97.60
2019-01-16T05:22:43.775Z,98.20
2019-01-16T05:25:37.706Z,98.30
2019-01-16T05:28:23.079Z,97.90
2019-01-16T05:31:03.943Z,98.40
2019-01-16T05:33:57.194Z,98.20
2019-01-16T05:36:44.451Z,98.30
2019-01-16T05:39:31.798Z,98.70
2019-01-16T05:42:18.930Z,99.10
2019-01-16T05:45:00.799Z,99.10
2019-01-16T05:47:41.334Z,99.10
2019-01-16T05:50:30.967Z,99.70
2019-01-16T05:53:16.594Z,99.90
2019-01-16T05:56:02.380Z,99.40
2019-01-16T05:59:01.542Z,99.60
2019-01-16T06:01:37.566Z,99.70
2019-01-16T06:04:33.485Z,99.40
2019-01-16T06:07:32.974Z,99.40
2019-01-16T06:10:29.127Z,99.20
2019-01-16T06:13:28.338Z,98.90
2019-01-16T06:16:13.954Z,99.20
2019-01-16T06:18:51.372Z,97.80
2019-01-16T06:21:36.790Z,97.00
2019-01-16T06:24:32.722Z,97.10
2019-01-16T06:27:12.094Z,96.50
2019-01-16T06:29:52.115Z,96.00
2019-01-16T06:32:37.607Z,96.80
2019-01-16T06:35:36.987Z,97.00
2019-01-16T06:38:22.743Z,97.00
2019-01-16T06:41:11.897Z,96.50
2019-01-16T06:43:57.410Z,96.80
2019-01-16T06:47:02.238Z,97.50
2019-01-16T06:50:01.539Z,97.20
2019-01-16T06:52:43.836Z,98.50
2019-01-16T06:55:19.997Z,98.40
2019-01-16T06:58:13.207Z,98.30
2019-01-16T07:01:00.535Z,98.80
2019-01-16T07:03:59.510Z,98.50
2019-01-16T07:06:35.392Z,98.40
2019-01-16T07:09:26.618Z,98.80
2019-01-16T07:12:12.167Z,99.20
2019-01-16T07:15:11.076Z,99.90
2019-01-16T07:18:13.026Z,99.90
2019-01-16T07:21:07.337Z,99.90
2019-01-16T07:24:03.358Z,99.90
2019-01-16T07:26:49.548Z,99.90
2019-01-16T07:29:32.526Z,99.90
2019-01-16T07:32:17.711Z,99.70
2019-01-16T07:35:10.926Z,99.90
2019-01-16T07:37:58.246Z,99.90
2019-01-16T07:40:44.176Z,99.90
2019-01-16T07:43:29.692Z,99.50
2019-01-16T07:46:22.610Z,98.90
2019-01-16T07:49:21.800Z,99.20
2019-01-16T07:52:17.896Z,99.70
2019-01-16T07:55:03.587Z,99.20
2019-01-16T07:57:59.895Z,99.80
2019-01-16T08:00:36.041Z,99.80
2019-01-16T08:03:32.083Z,99.50
2019-01-16T08:06:13.772Z,99.90
2019-01-16T08:09:11.442Z,99.60
2019-01-16T08:12:04.392Z,98.90
2019-01-16T08:14:54.194Z,98.30
2019-01-16T08:17:45.968Z,98.40
2019-01-16T08:20:48.138Z,98.10
2019-01-16T08:23:38.090Z,98.30
2019-01-16T08:26:25.175Z,98.60
2019-01-16T08:29:10.807Z,98.50
2019-01-16T08:31:48.972Z,98.50
2019-01-16T08:34:35.955Z,98.10
2019-01-16T08:37:28.866Z,98.40
2019-01-16T08:40:14.246Z,97.50
2019-01-16T08:42:52.138Z,97.40
2019-01-16T08:45:42.017Z,98.00
2019-01-16T08:48:31.931Z,98.40
2019-01-16T08:51:17.578Z,98.80
2019-01-16T08:54:03.422Z,99.30
2019-01-16T08:56:44.477Z,99.40
2019-01-16T08:59:34.615Z,99.80
2019-01-16T09:02:20.674Z,99.10
2019-01-16T09:05:10.371Z,98.90
2019-01-16T09:07:54.243Z,99.00
2019-01-16T09:10:41.225Z,98.60
2019-01-16T09:13:28.578Z,98.60
2019-01-16T09:16:15.839Z,98.20
2019-01-16T09:19:04.339Z,98.90
2019-01-16T09:21:57.147Z,97.90
2019-01-16T09:24:42.692Z,98.70
2019-01-16T09:27:20.061Z,98.10
2019-01-16T09:29:56.735Z,98.40
2019-01-16T09:32:43.691Z,97.90
2019-01-16T09:35:24.911Z,97.30
2019-01-16T09:38:20.754Z,95.70
2019-01-16T09:41:06.234Z,95.30
2019-01-16T09:43:52.267Z,93.60
2019-01-16T09:46:38.479Z,93.80
2019-01-16T09:49:31.515Z,93.70
2019-01-16T09:52:09.834Z,94.40
2019-01-16T09:55:02.774Z,94.30
2019-01-16T09:57:48.250Z,95.20
2019-01-16T10:00:43.230Z,94.90
2019-01-16T10:03:32.765Z,94.40
2019-01-16T10:06:17.782Z,94.00
2019-01-16T10:09:23.307Z,92.30
2019-01-16T10:12:19.325Z,93.50
2019-01-16T10:15:09.202Z,92.80
2019-01-16T10:17:49.996Z,93.40
2019-01-16T10:20:35.758Z,94.50
2019-01-16T10:23:18.022Z,94.60
2019-01-16T10:26:03.792Z,94.20
2019-01-16T10:28:50.955Z,92.60
2019-01-16T10:31:55.667Z,92.50
2019-01-16T10:34:45.687Z,91.90
2019-01-16T10:37:31.700Z,92.50
2019-01-16T10:40:21.707Z,92.80
2019-01-16T10:43:26.906Z,92.60
2019-01-16T10:46:25.494Z,91.20
2019-01-16T10:49:01.102Z,90.70
2019-01-16T10:51:46.822Z,91.30
2019-01-16T10:54:32.910Z,91.30
2019-01-16T10:57:18.427Z,90.90
2019-01-16T11:00:05.873Z,91.40
2019-01-16T11:02:51.282Z,92.00
2019-01-16T11:05:36.918Z,91.90
2019-01-16T11:08:29.961Z,91.20
2019-01-16T11:11:16.875Z,91.80
2019-01-16T11:14:01.052Z,91.80
2019-01-16T11:16:56.781Z,90.90
2019-01-16T11:19:49.818Z,91.30
2019-01-16T11:22:46.191Z,91.90
2019-01-16T11:25:35.118Z,91.30
2019-01-16T11:28:20.570Z,91.70
2019-01-16T11:31:22.447Z,91.70
2019-01-16T11:34:09.489Z,91.80
2019-01-16T11:36:55.586Z,91.50
2019-01-16T11:39:30.762Z,90.90
2019-01-16T11:42:16.466Z,90.20
2019-01-16T11:45:21.842Z,90.20
2019-01-16T11:48:07.246Z,90.00
2019-01-16T11:50:52.858Z,88.30
2019-01-16T11:53:38.360Z,88.00
2019-01-16T11:56:23.920Z,87.90
2019-01-16T11:59:10.902Z,88.30
2019-01-16T12:02:03.622Z,86.90
2019-01-16T12:04:55.441Z,87.50
2019-01-16T12:07:39.017Z,86.20
2019-01-16T12:10:29.891Z,85.50
2019-01-16T12:13:13.625Z,85.50
2019-01-16T12:16:08.114Z,85.50
2019-01-16T12:18:52.753Z,84.90
2019-01-16T12:21:38.433Z,83.60
2019-01-16T12:24:18.447Z,84.20
2019-01-16T12:27:03.588Z,83.50
2019-01-16T12:29:56.515Z,82.70
2019-01-16T12:32:33.914Z,83.50
2019-01-16T12:35:19.074Z,81.50
2019-01-16T12:38:04.380Z,81.40
2019-01-16T12:41:06.436Z,81.80
2019-01-16T12:43:59.495Z,82.80
2019-01-16T12:46:46.554Z,82.90
2019-01-16T12:49:32.047Z,83.20
2019-01-16T12:52:21.975Z,83.50
2019-01-16T12:55:07.150Z,85.20
2019-01-16T12:57:53.002Z,85.50
2019-01-16T13:00:30.041Z,87.50
2019-01-16T13:03:15.932Z,87.60
2019-01-16T13:06:03.003Z,88.20
2019-01-16T13:08:50.310Z,90.70
2019-01-16T13:11:37.426Z,91.10
2019-01-16T13:14:30.102Z,90.70
2019-01-16T13:17:19.010Z,90.60
2019-01-16T13:20:04.390Z,90.60
2019-01-16T13:22:54.012Z,90.40
2019-01-16T13:25:39.702Z,89.70
2019-01-16T13:28:32.630Z,90.00
2019-01-16T13:31:18.107Z,90.10
2019-01-16T13:34:06.904Z,89.70
2019-01-16T13:36:54.002Z,89.40
2019-01-16T13:39:41.286Z,88.90
2019-01-16T13:42:21.612Z,89.30
2019-01-16T13:45:11.653Z,88.40
2019-01-16T13:47:59.038Z,89.40
2019-01-16T13:50:49.353Z,86.90
2019-01-16T13:53:43.745Z,87.20
2019-01-16T13:56:34.035Z,87.10
2019-01-16T13:59:35.940Z,86.30
2019-01-16T14:02:38.324Z,86.70
2019-01-16T14:05:28.720Z,87.70
2019-01-16T14:08:34.078Z,90.00
2019-01-16T14:11:24.163Z,90.30
2019-01-16T14:14:12.686Z,90.50
2019-01-16T14:16:58.265Z,90.80
2019-01-16T14:19:57.082Z,91.20
2019-01-16T14:22:49.792Z,91.00
2019-01-16T14:25:48.827Z,90.60
2019-01-16T14:28:42.330Z,91.40
2019-01-16T14:31:27.943Z,91.40
2019-01-16T14:34:18.074Z,90.80
2019-01-16T14:37:07.819Z,91.10
2019-01-16T14:39:46.720Z,90.50
2019-01-16T14:42:22.370Z,91.20
2019-01-16T14:45:03.388Z,91.30
2019-01-16T14:47:42.898Z,91.80
2019-01-16T14:50:23.962Z,92.10
2019-01-16T14:53:06.414Z,92.60
2019-01-16T14:56:02.402Z,92.60
2019-01-16T14:58:38.257Z,92.80
2019-01-16T15:01:23.772Z,92.30
2019-01-16T15:03:58.696Z,93.30
2019-01-16T15:06:39.284Z,92.50
2019-01-16T15:09:28.279Z,93.00
2019-01-16T15:12:04.928Z,92.50
2019-01-16T15:14:50.757Z,92.80
2019-01-16T15:17:50.242Z,92.30
2019-01-16T15:20:33.650Z,93.10
2019-01-16T15:23:21.030Z,92.40
2019-01-16T15:26:14.086Z,92.50
2019-01-16T15:29:04.107Z,92.80
2019-01-16T15:31:50.797Z,93.10
2019-01-16T15:34:37.783Z,93.00
2019-01-16T15:37:39.861Z,93.10
2019-01-16T15:40:32.186Z,93.40
2019-01-16T15:43:34.323Z,93.90
2019-01-16T15:46:13.895Z,94.10
2019-01-16T15:48:59.406Z,93.80
2019-01-16T15:51:44.691Z,93.60
2019-01-16T15:54:31.694Z,93.60
2019-01-16T15:57:36.770Z,93.80
2019-01-16T16:00:24.161Z,93.70
2019-01-16T16:03:19.946Z,93.70
2019-01-16T16:06:15.954Z,93.90
2019-01-16T16:09:02.984Z,94.00
2019-01-16T16:11:43.790Z,93.50
2019-01-16T16:14:29.899Z,93.70
2019-01-16T16:17:23.490Z,94.20
2019-01-16T16:20:05.408Z,93.80
2019-01-16T16:22:52.438Z,94.30
2019-01-16T16:25:42.752Z,93.70
2019-01-16T16:28:28.647Z,93.90
2019-01-16T16:31:21.759Z,94.20
2019-01-16T16:34:21.288Z,93.80
2019-01-16T16:37:08.986Z,93.90
2019-01-16T16:39:54.993Z,94.00
2019-01-16T16:42:53.930Z,94.30
2019-01-16T16:45:30.474Z,94.00
2019-01-16T16:48:23.499Z,94.20
2019-01-16T16:51:03.251Z,94.30
2019-01-16T16:53:49.843Z,94.30
2019-01-16T16:56:51.763Z,94.10
2019-01-16T16:59:44.395Z,94.00
2019-01-16T17:02:29.694Z,94.10
2019-01-16T17:05:19.758Z,93.70
2019-01-16T17:08:07.027Z,93.50
2019-01-16T17:10:41.966Z,93.50
2019-01-16T17:13:27.894Z,93.70
2019-01-16T17:16:09.631Z,93.30
2019-01-16T17:19:08.680Z,93.20
2019-01-16T17:22:08.097Z,93.90
2019-01-16T17:24:53.612Z,93.70
2019-01-16T17:27:43.375Z,94.00
2019-01-16T17:30:37.443Z,93.60
2019-01-16T17:33:31.159Z,93.70
2019-01-16T17:36:24.589Z,93.60
2019-01-16T17:39:17.236Z,93.60
2019-01-16T17:42:08.151Z,93.60
2019-01-16T17:45:07.186Z,93.90
2019-01-16T17:48:03.498Z,94.00
2019-01-16T17:50:59.661Z,94.00
2019-01-16T17:53:55.099Z,94.60
2019-01-16T17:56:40.610Z,94.80
2019-01-16T17:59:30.298Z,94.90
2019-01-16T18:02:16.330Z,94.80
2019-01-16T18:05:15.790Z,94.50
2019-01-16T18:08:03.102Z,94.40
2019-01-16T18:10:48.514Z,94.60
2019-01-16T18:13:28.594Z,95.10
2019-01-16T18:16:14.292Z,95.10
2019-01-16T18:18:53.278Z,94.90
2019-01-16T18:21:58.369Z,95.30
2019-01-16T18:24:43.853Z,95.00
2019-01-16T18:27:28.571Z,94.60
2019-01-16T18:30:27.787Z,95.00
2019-01-16T18:33:07.294Z,94.80
2019-01-16T18:35:46.978Z,95.40
2019-01-16T18:38:52.134Z,95.30
2019-01-16T18:41:35.979Z,95.60
2019-01-16T18:44:29.054Z,95.70
2019-01-16T18:47:14.479Z,95.70
2019-01-16T18:50:01.574Z,96.00
2019-01-16T18:52:51.898Z,95.70
2019-01-16T18:55:34.013Z,95.90
2019-01-16T18:58:17.653Z,96.10
2019-01-16T19:01:04.659Z,96.10
2019-01-16T19:03:44.832Z,96.50
2019-01-16T19:06:34.474Z,96.30
2019-01-16T19:09:36.882Z,96.50
2019-01-16T19:12:22.406Z,96.80
2019-01-16T19:15:10.986Z,97.10
2019-01-16T19:17:54.277Z,96.50
2019-01-16T19:20:59.616Z,96.60
2019-01-16T19:23:48.914Z,96.90
2019-01-16T19:26:48.002Z,96.90
2019-01-16T19:29:33.505Z,97.20
2019-01-16T19:32:36.023Z,97.90
2019-01-16T19:35:39.168Z,97.30
2019-01-16T19:38:23.500Z,97.50
2019-01-16T19:41:25.522Z,97.30
2019-01-16T19:44:13.352Z,96.40
2019-01-16T19:46:52.970Z,96.50
2019-01-16T19:49:49.756Z,96.80
2019-01-16T19:52:55.086Z,97.00
2019-01-16T19:55:40.969Z,96.80
2019-01-16T19:58:26.914Z,96.50
2019-01-16T20:01:12.586Z,96.90
2019-01-16T20:03:50.078Z,96.50
2019-01-16T20:06:53.988Z,96.40
2019-01-16T20:09:45.603Z,96.80
2019-01-16T20:12:35.502Z,96.80
2019-01-16T20:15:32.028Z,96.50
2019-01-16T20:18:25.190Z,96.50
2019-01-16T20:21:21.266Z,96.70
2019-01-16T20:24:08.310Z,96.70
2019-01-16T20:27:01.062Z,96.60
2019-01-16T20:29:51.139Z,96.80
2019-01-16T20:32:46.998Z,95.90
2019-01-16T20:35:34.064Z,96.20
2019-01-16T20:38:20.176Z,95.60
2019-01-16T20:41:05.536Z,96.20
2019-01-16T20:43:55.518Z,96.30
2019-01-16T20:46:41.040Z,96.00
2019-01-16T20:49:27.175Z,96.20
2019-01-16T20:52:07.206Z,96.60
2019-01-16T20:55:00.298Z,96.50
2019-01-16T20:57:49.971Z,97.00
2019-01-16T21:00:39.662Z,97.00
2019-01-16T21:03:25.028Z,96.60
2019-01-16T21:06:12.832Z,96.60
2019-01-16T21:08:59.911Z,96.80
2019-01-16T21:11:49.532Z,96.80
2019-01-16T21:14:31.619Z,96.40
2019-01-16T21:17:08.618Z,96.40
2019-01-16T21:19:47.614Z,96.60
2019-01-16T21:22:35.834Z,95.90
2019-01-16T21:25:16.406Z,96.60
2019-01-16T21:28:04.171Z,96.10
2019-01-16T21:30:57.018Z,96.70
2019-01-16T21:33:42.815Z,96.70
2019-01-16T21:36:32.651Z,96.50
2019-01-16T21:39:25.434Z,96.60
2019-01-16T21:42:16.849Z,96.40
2019-01-16T21:45:06.701Z,96.60
2019-01-16T21:47:54.281Z,96.40
2019-01-16T21:50:40.228Z,96.20
2019-01-16T21:53:33.130Z,96.80
2019-01-16T21:56:10.661Z,97.00
2019-01-16T21:59:00.820Z,97.50
2019-01-16T22:01:46.373Z,96.90
2019-01-16T22:04:32.040Z,97.30
2019-01-16T22:07:17.393Z,97.30
2019-01-16T22:10:19.586Z,97.90
2019-01-16T22:13:18.494Z,98.00
2019-01-16T22:16:04.070Z,98.30
2019-01-16T22:18:51.034Z,98.10
2019-01-16T22:21:27.799Z,98.10
2019-01-16T22:24:14.771Z,98.20
2019-01-16T22:27:07.670Z,98.60
2019-01-16T22:30:03.378Z,98.60
2019-01-16T22:32:45.134Z,98.10
2019-01-16T22:35:30.774Z,98.50
2019-01-16T22:38:16.687Z,98.20
2019-01-16T22:41:12.762Z,98.70
2019-01-16T22:44:05.868Z,99.10
2019-01-16T22:46:47.144Z,98.60
2019-01-16T22:49:52.070Z,98.70
2019-01-16T22:52:48.463Z,98.80
2019-01-16T22:55:41.182Z,99.00
2019-01-16T22:58:22.446Z,99.50
2019-01-16T23:01:11.763Z,99.30
2019-01-16T23:03:56.854Z,99.90
2019-01-16T23:06:42.489Z,99.90
2019-01-16T23:09:41.398Z,99.90
2019-01-16T23:12:29.083Z,99.60
2019-01-16T23:15:31.330Z,99.90
2019-01-16T23:18:16.774Z,99.90
2019-01-16T23:20:56.243Z,99.90
2019-01-16T23:23:49.818Z,99.90
2019-01-16T23:26:33.557Z,99.70
2019-01-16T23:29:11.673Z,99.90
2019-01-16T23:32:16.633Z,99.80
2019-01-16T23:34:55.322Z,99.20
2019-01-16T23:37:40.878Z,99.10
2019-01-16T23:40:37.677Z,99.60
2019-01-16T23:43:30.982Z,99.30
2019-01-16T23:46:26.838Z,99.30
2019-01-16T23:49:15.015Z,99.20
2019-01-16T23:52:01.079Z,99.10
2019-01-16T23:54:45.508Z,98.60
2019-01-16T23:57:47.579Z,99.00
